createdAt,value
2018-07-14T00:01:10.850Z,63.80
2018-07-14T00:03:39.164Z,63.80
2018-07-14T00:06:07.498Z,64.20
2018-07-14T00:13:32.042Z,64.50
2018-07-14T00:16:00.386Z,64.70
2018-07-14T00:20:56.778Z,64.20
2018-07-14T00:23:25.100Z,64.30
2018-07-14T00:26:03.144Z,65.00
2018-07-14T00:28:33.018Z,65.40
2018-07-14T00:31:01.355Z,65.80
2018-07-14T00:33:30.356Z,66.10
2018-07-14T00:35:58.660Z,65.20
2018-07-14T00:38:27.457Z,65.50
2018-07-14T00:40:55.853Z,65.80
2018-07-14T00:48:20.286Z,66.60
2018-07-14T00:55:44.826Z,66.80
2018-07-14T00:58:13.096Z,67.40
2018-07-14T01:00:41.398Z,67.70
2018-07-14T01:03:09.774Z,67.90
2018-07-14T01:05:38.106Z,68.50
2018-07-14T01:08:06.483Z,68.70
2018-07-14T01:15:30.923Z,69.50
2018-07-14T01:20:27.361Z,70.20
2018-07-14T01:25:23.740Z,70.20
2018-07-14T01:27:52.018Z,70.10
2018-07-14T01:30:20.334Z,70.60
2018-07-14T01:32:48.701Z,70.80
2018-07-14T01:35:17.075Z,70.50
2018-07-14T01:37:45.353Z,70.10
2018-07-14T01:40:13.713Z,70.50
2018-07-14T01:42:42.044Z,71.20
2018-07-14T01:45:10.353Z,71.30
2018-07-14T01:47:38.679Z,71.70
2018-07-14T01:50:07.015Z,71.90
2018-07-14T01:55:03.388Z,72.10
2018-07-14T01:57:31.707Z,72.50
2018-07-14T02:00:00.036Z,72.00
2018-07-14T02:04:56.387Z,72.40
2018-07-14T02:07:24.725Z,72.70
2018-07-14T02:12:21.105Z,73.10
2018-07-14T02:14:49.418Z,73.00
2018-07-14T02:17:17.734Z,72.90
2018-07-14T02:22:14.121Z,74.30
2018-07-14T02:24:42.465Z,74.30
2018-07-14T02:29:38.749Z,74.70
2018-07-14T02:34:35.138Z,75.30
2018-07-14T02:37:03.429Z,75.60
2018-07-14T02:39:31.784Z,75.90
2018-07-14T02:42:00.110Z,76.40
2018-07-14T02:44:28.409Z,77.00
2018-07-14T02:46:56.762Z,77.10
2018-07-14T02:51:53.105Z,77.00
2018-07-14T02:59:17.501Z,77.90
2018-07-14T03:01:45.833Z,77.50
2018-07-14T03:04:14.134Z,77.70
2018-07-14T03:06:42.485Z,78.10
2018-07-14T03:09:10.847Z,78.80
2018-07-14T03:11:39.137Z,78.90
2018-07-14T03:14:07.439Z,79.60
2018-07-14T03:16:35.753Z,79.90
2018-07-14T03:21:32.204Z,79.80
2018-07-14T03:28:56.631Z,79.70
2018-07-14T03:33:52.978Z,80.20
2018-07-14T03:38:49.344Z,80.50
2018-07-14T03:41:17.665Z,80.20
2018-07-14T03:43:45.961Z,80.50
2018-07-14T03:46:14.339Z,80.60
2018-07-14T03:48:42.613Z,80.60
2018-07-14T03:51:10.993Z,79.40
2018-07-14T03:53:39.379Z,79.60
2018-07-14T03:56:07.664Z,80.10
2018-07-14T03:58:36.002Z,79.60
2018-07-14T04:01:04.307Z,80.80
2018-07-14T04:03:32.654Z,82.20
2018-07-14T04:06:00.968Z,83.00
2018-07-14T04:08:29.659Z,82.00
2018-07-14T04:10:58.000Z,82.80
2018-07-14T04:13:26.296Z,81.80
2018-07-14T04:15:54.636Z,81.00
2018-07-14T04:18:22.930Z,82.10
2018-07-14T04:20:51.234Z,81.50
2018-07-14T04:23:19.594Z,82.80
2018-07-14T04:25:47.894Z,83.60
2018-07-14T04:28:16.259Z,82.60
2018-07-14T04:30:44.575Z,83.70
2018-07-14T04:35:40.936Z,85.70
2018-07-14T04:43:05.399Z,87.20
2018-07-14T04:45:33.730Z,87.60
2018-07-14T04:50:30.119Z,88.30
2018-07-14T04:52:58.492Z,88.60
2018-07-14T04:55:26.821Z,88.80
2018-07-14T05:00:23.221Z,90.00
2018-07-14T05:02:51.549Z,90.10
2018-07-14T05:07:47.977Z,90.60
2018-07-14T05:10:16.303Z,90.90
2018-07-14T05:12:44.564Z,90.70
2018-07-14T05:17:40.957Z,89.40
2018-07-14T05:20:09.312Z,88.20
2018-07-14T05:22:37.612Z,89.60
2018-07-14T05:25:05.938Z,90.00
2018-07-14T05:30:02.314Z,90.20
2018-07-14T05:32:30.618Z,90.10
2018-07-14T05:34:58.950Z,89.90
2018-07-14T05:39:55.287Z,90.20
2018-07-14T05:42:23.602Z,90.20
2018-07-14T05:44:51.946Z,87.40
2018-07-14T05:47:20.383Z,88.10
2018-07-14T05:49:49.001Z,88.50
2018-07-14T05:52:17.375Z,89.20
2018-07-14T05:54:45.697Z,90.00
2018-07-14T05:57:13.963Z,87.90
2018-07-14T06:02:10.316Z,88.80
2018-07-14T06:07:06.721Z,89.70
2018-07-14T06:09:35.037Z,90.00
2018-07-14T06:14:33.001Z,87.50
2018-07-14T06:17:01.336Z,87.90
2018-07-14T06:19:29.712Z,86.40
2018-07-14T06:21:58.081Z,85.50
2018-07-14T06:24:26.490Z,86.90
2018-07-14T06:26:54.832Z,88.70
2018-07-14T06:29:23.151Z,89.40
2018-07-14T06:31:51.467Z,90.10
2018-07-14T06:39:16.013Z,88.30
2018-07-14T06:41:44.380Z,88.10
2018-07-14T06:46:40.827Z,87.00
2018-07-14T06:51:41.601Z,83.80
2018-07-14T06:54:10.615Z,82.20
2018-07-14T06:56:38.884Z,81.20
2018-07-14T06:59:08.770Z,82.50
2018-07-14T07:04:05.112Z,83.70
2018-07-14T07:11:29.696Z,82.40
2018-07-14T07:13:58.092Z,81.80
2018-07-14T07:16:26.472Z,79.20
2018-07-14T07:18:54.833Z,77.90
2018-07-14T07:21:23.306Z,77.10
2018-07-14T07:23:51.571Z,76.40
2018-07-14T07:26:19.894Z,78.60
2018-07-14T07:28:48.418Z,79.90
2018-07-14T07:31:16.707Z,79.70
2018-07-14T07:33:45.013Z,79.90
2018-07-14T07:36:13.382Z,79.80
2018-07-14T07:38:41.824Z,79.30
2018-07-14T07:41:10.231Z,79.20
2018-07-14T07:43:38.562Z,78.30
2018-07-14T07:48:35.039Z,77.00
2018-07-14T07:51:03.312Z,77.00
2018-07-14T07:53:32.771Z,76.30
2018-07-14T07:56:00.940Z,76.30
2018-07-14T07:58:29.304Z,76.00
2018-07-14T08:00:57.630Z,75.90
2018-07-14T08:05:54.169Z,74.60
2018-07-14T08:08:22.476Z,75.30
2018-07-14T08:10:50.808Z,75.50
2018-07-14T08:13:19.217Z,74.40
2018-07-14T08:18:15.619Z,74.60
2018-07-14T08:20:43.995Z,74.00
2018-07-14T08:23:12.386Z,73.10
2018-07-14T08:25:40.738Z,72.20
2018-07-14T08:28:09.338Z,72.40
2018-07-14T08:30:37.728Z,72.60
2018-07-14T08:33:07.757Z,73.30
2018-07-14T08:35:38.109Z,73.50
2018-07-14T08:38:06.493Z,73.80
2018-07-14T08:40:34.814Z,74.80
2018-07-14T08:43:03.197Z,75.50
2018-07-14T08:45:31.537Z,73.50
2018-07-14T08:52:56.396Z,74.40
2018-07-14T08:55:24.788Z,75.40
2018-07-14T08:57:53.159Z,75.80
2018-07-14T09:00:21.655Z,76.00
2018-07-14T09:02:50.004Z,75.80
2018-07-14T09:05:18.393Z,75.50
2018-07-14T09:07:46.738Z,75.70
2018-07-14T09:15:11.246Z,73.80
2018-07-14T09:20:07.711Z,71.10
2018-07-14T09:27:32.378Z,68.90
2018-07-14T09:30:00.759Z,69.10
2018-07-14T09:32:29.089Z,69.20
2018-07-14T09:37:25.573Z,67.40
2018-07-14T09:39:53.928Z,66.10
2018-07-14T09:44:51.561Z,65.90
2018-07-14T09:47:19.946Z,64.10
2018-07-14T09:49:50.287Z,61.70
